sensor_id;sensor_type;location;lat;lon;timestamp;P1;durP1;ratioP1;P2;durP2;ratioP2
59972;SDS011;55298;-36.624;-64.282;2023-11-19T00:00:08;7.72;;;4.35;;
59972;SDS011;55298;-36.624;-64.282;2023-11-19T00:02:38;9.88;;;3.20;;
59972;SDS011;55298;-36.624;-64.282;2023-11-19T00:05:07;8.38;;;3.47;;
59972;SDS011;55298;-36.624;-64.282;2023-11-19T00:07:37;7.47;;;3.33;;
59972;SDS011;55298;-36.624;-64.282;2023-11-19T00:10:09;14.93;;;2.85;;
59972;SDS011;55298;-36.624;-64.282;2023-11-19T00:12:40;5.20;;;2.90;;
59972;SDS011;55298;-36.624;-64.282;2023-11-19T00:15:10;9.18;;;2.80;;
59972;SDS011;55298;-36.624;-64.282;2023-11-19T00:17:38;8.23;;;3.75;;
59972;SDS011;55298;-36.624;-64.282;2023-11-19T00:20:08;15.20;;;8.23;;
59972;SDS011;55298;-36.624;-64.282;2023-11-19T00:22:36;7.90;;;4.28;;
59972;SDS011;55298;-36.624;-64.282;2023-11-19T00:25:04;8.98;;;3.80;;
59972;SDS011;55298;-36.624;-64.282;2023-11-19T00:27:32;7.15;;;3.50;;
59972;SDS011;55298;-36.624;-64.282;2023-11-19T00:30:00;5.18;;;3.05;;
59972;SDS011;55298;-36.624;-64.282;2023-11-19T00:32:31;8.63;;;3.95;;
59972;SDS011;55298;-36.624;-64.282;2023-11-19T00:34:59;5.95;;;3.50;;
59972;SDS011;55298;-36.624;-64.282;2023-11-19T00:37:28;5.05;;;2.83;;
59972;SDS011;55298;-36.624;-64.282;2023-11-19T00:39:56;5.32;;;3.72;;
59972;SDS011;55298;-36.624;-64.282;2023-11-19T00:42:24;7.50;;;4.93;;
59972;SDS011;55298;-36.624;-64.282;2023-11-19T00:44:52;7.68;;;4.47;;
59972;SDS011;55298;-36.624;-64.282;2023-11-19T00:47:20;7.65;;;3.95;;
59972;SDS011;55298;-36.624;-64.282;2023-11-19T00:49:48;5.50;;;3.90;;
59972;SDS011;55298;-36.624;-64.282;2023-11-19T00:52:16;6.75;;;3.92;;
59972;SDS011;55298;-36.624;-64.282;2023-11-19T00:54:45;5.72;;;4.38;;
59972;SDS011;55298;-36.624;-64.282;2023-11-19T00:57:13;6.50;;;4.65;;
59972;SDS011;55298;-36.624;-64.282;2023-11-19T00:59:42;10.07;;;5.07;;
59972;SDS011;55298;-36.624;-64.282;2023-11-19T01:02:13;5.75;;;4.00;;
59972;SDS011;55298;-36.624;-64.282;2023-11-19T01:04:41;7.75;;;4.55;;
59972;SDS011;55298;-36.624;-64.282;2023-11-19T01:07:08;9.65;;;4.97;;
59972;SDS011;55298;-36.624;-64.282;2023-11-19T01:09:38;8.18;;;4.70;;
59972;SDS011;55298;-36.624;-64.282;2023-11-19T01:12:07;7.15;;;4.25;;
59972;SDS011;55298;-36.624;-64.282;2023-11-19T01:14:36;7.03;;;4.50;;
59972;SDS011;55298;-36.624;-64.282;2023-11-19T01:17:05;8.63;;;6.53;;
59972;SDS011;55298;-36.624;-64.282;2023-11-19T01:19:32;6.63;;;5.22;;
59972;SDS011;55298;-36.624;-64.282;2023-11-19T01:22:01;9.10;;;4.88;;
59972;SDS011;55298;-36.624;-64.282;2023-11-19T01:24:28;8.57;;;4.80;;
59972;SDS011;55298;-36.624;-64.282;2023-11-19T01:26:57;8.18;;;6.22;;
59972;SDS011;55298;-36.624;-64.282;2023-11-19T01:29:25;7.60;;;6.00;;
59972;SDS011;55298;-36.624;-64.282;2023-11-19T01:31:53;6.88;;;5.20;;
59972;SDS011;55298;-36.624;-64.282;2023-11-19T01:34:20;9.52;;;5.35;;
59972;SDS011;55298;-36.624;-64.282;2023-11-19T01:36:48;9.30;;;6.20;;
59972;SDS011;55298;-36.624;-64.282;2023-11-19T01:39:16;7.65;;;5.13;;
59972;SDS011;55298;-36.624;-64.282;2023-11-19T01:41:46;6.32;;;4.72;;
59972;SDS011;55298;-36.624;-64.282;2023-11-19T01:44:14;4.97;;;4.40;;
59972;SDS011;55298;-36.624;-64.282;2023-11-19T01:46:44;6.03;;;4.13;;
59972;SDS011;55298;-36.624;-64.282;2023-11-19T01:49:14;4.97;;;3.88;;
59972;SDS011;55298;-36.624;-64.282;2023-11-19T01:51:43;6.00;;;3.60;;
59972;SDS011;55298;-36.624;-64.282;2023-11-19T01:54:12;6.10;;;4.95;;
59972;SDS011;55298;-36.624;-64.282;2023-11-19T01:56:41;9.50;;;4.68;;
59972;SDS011;55298;-36.624;-64.282;2023-11-19T01:59:10;3.60;;;2.97;;
59972;SDS011;55298;-36.624;-64.282;2023-11-19T02:01:39;8.48;;;3.20;;
59972;SDS011;55298;-36.624;-64.282;2023-11-19T02:04:08;6.88;;;3.67;;
59972;SDS011;55298;-36.624;-64.282;2023-11-19T02:06:37;5.45;;;3.22;;
59972;SDS011;55298;-36.624;-64.282;2023-11-19T02:09:07;5.80;;;2.97;;
59972;SDS011;55298;-36.624;-64.282;2023-11-19T02:11:35;4.00;;;3.25;;
59972;SDS011;55298;-36.624;-64.282;2023-11-19T02:14:06;8.30;;;4.20;;
59972;SDS011;55298;-36.624;-64.282;2023-11-19T02:16:33;8.23;;;4.30;;
59972;SDS011;55298;-36.624;-64.282;2023-11-19T02:19:01;6.82;;;3.85;;
59972;SDS011;55298;-36.624;-64.282;2023-11-19T02:21:33;5.65;;;4.13;;
59972;SDS011;55298;-36.624;-64.282;2023-11-19T02:24:02;4.35;;;3.05;;
59972;SDS011;55298;-36.624;-64.282;2023-11-19T02:26:34;6.50;;;3.27;;
59972;SDS011;55298;-36.624;-64.282;2023-11-19T02:29:13;4.45;;;2.80;;
59972;SDS011;55298;-36.624;-64.282;2023-11-19T02:31:42;6.03;;;3.17;;
59972;SDS011;55298;-36.624;-64.282;2023-11-19T02:34:13;4.50;;;3.47;;
59972;SDS011;55298;-36.624;-64.282;2023-11-19T02:36:42;4.07;;;3.05;;
59972;SDS011;55298;-36.624;-64.282;2023-11-19T02:39:09;4.38;;;2.80;;
59972;SDS011;55298;-36.624;-64.282;2023-11-19T02:41:38;5.10;;;2.85;;
59972;SDS011;55298;-36.624;-64.282;2023-11-19T02:44:06;3.90;;;3.10;;
59972;SDS011;55298;-36.624;-64.282;2023-11-19T02:46:34;3.40;;;3.10;;
59972;SDS011;55298;-36.624;-64.282;2023-11-19T02:49:02;7.90;;;3.70;;
59972;SDS011;55298;-36.624;-64.282;2023-11-19T02:51:29;5.65;;;4.70;;
59972;SDS011;55298;-36.624;-64.282;2023-11-19T02:53:58;5.80;;;5.18;;
59972;SDS011;55298;-36.624;-64.282;2023-11-19T02:56:25;5.03;;;4.57;;
59972;SDS011;55298;-36.624;-64.282;2023-11-19T02:58:55;6.53;;;4.60;;
59972;SDS011;55298;-36.624;-64.282;2023-11-19T03:01:24;4.78;;;3.72;;
59972;SDS011;55298;-36.624;-64.282;2023-11-19T03:03:56;4.13;;;2.83;;
59972;SDS011;55298;-36.624;-64.282;2023-11-19T03:06:24;5.55;;;2.65;;
59972;SDS011;55298;-36.624;-64.282;2023-11-19T03:08:53;7.28;;;2.83;;
59972;SDS011;55298;-36.624;-64.282;2023-11-19T03:11:21;2.63;;;2.40;;
59972;SDS011;55298;-36.624;-64.282;2023-11-19T03:13:50;4.63;;;2.83;;
59972;SDS011;55298;-36.624;-64.282;2023-11-19T03:16:17;4.05;;;2.30;;
59972;SDS011;55298;-36.624;-64.282;2023-11-19T03:18:45;6.50;;;2.78;;
59972;SDS011;55298;-36.624;-64.282;2023-11-19T03:21:13;2.92;;;2.28;;
59972;SDS011;55298;-36.624;-64.282;2023-11-19T03:23:41;2.42;;;2.28;;
59972;SDS011;55298;-36.624;-64.282;2023-11-19T03:26:10;3.13;;;2.63;;
59972;SDS011;55298;-36.624;-64.282;2023-11-19T03:28:39;4.53;;;2.63;;
59972;SDS011;55298;-36.624;-64.282;2023-11-19T03:31:07;4.20;;;2.63;;
59972;SDS011;55298;-36.624;-64.282;2023-11-19T03:33:34;3.72;;;2.47;;
59972;SDS011;55298;-36.624;-64.282;2023-11-19T03:36:03;2.67;;;2.40;;
59972;SDS011;55298;-36.624;-64.282;2023-11-19T03:38:31;8.65;;;2.70;;
59972;SDS011;55298;-36.624;-64.282;2023-11-19T03:40:58;3.22;;;2.30;;
59972;SDS011;55298;-36.624;-64.282;2023-11-19T03:43:26;4.38;;;2.60;;
59972;SDS011;55298;-36.624;-64.282;2023-11-19T03:45:54;4.68;;;2.63;;
59972;SDS011;55298;-36.624;-64.282;2023-11-19T03:48:22;3.53;;;2.60;;
59972;SDS011;55298;-36.624;-64.282;2023-11-19T03:50:49;3.97;;;2.45;;
59972;SDS011;55298;-36.624;-64.282;2023-11-19T03:53:17;3.35;;;2.63;;
59972;SDS011;55298;-36.624;-64.282;2023-11-19T03:55:45;2.35;;;2.25;;
59972;SDS011;55298;-36.624;-64.282;2023-11-19T03:58:13;3.50;;;2.40;;
59972;SDS011;55298;-36.624;-64.282;2023-11-19T04:00:42;2.53;;;2.42;;
59972;SDS011;55298;-36.624;-64.282;2023-11-19T04:03:10;2.63;;;2.42;;
59972;SDS011;55298;-36.624;-64.282;2023-11-19T04:05:37;3.10;;;2.88;;
59972;SDS011;55298;-36.624;-64.282;2023-11-19T04:08:05;5.43;;;2.42;;
59972;SDS011;55298;-36.624;-64.282;2023-11-19T04:10:33;2.78;;;2.58;;
59972;SDS011;55298;-36.624;-64.282;2023-11-19T04:13:00;3.38;;;3.05;;
59972;SDS011;55298;-36.624;-64.282;2023-11-19T04:15:28;3.97;;;2.88;;
59972;SDS011;55298;-36.624;-64.282;2023-11-19T04:17:56;2.75;;;2.30;;
59972;SDS011;55298;-36.624;-64.282;2023-11-19T04:20:23;3.58;;;2.40;;
59972;SDS011;55298;-36.624;-64.282;2023-11-19T04:22:51;4.10;;;1.90;;
59972;SDS011;55298;-36.624;-64.282;2023-11-19T04:25:19;4.10;;;2.45;;
59972;SDS011;55298;-36.624;-64.282;2023-11-19T04:27:47;4.43;;;2.60;;
59972;SDS011;55298;-36.624;-64.282;2023-11-19T04:30:16;3.05;;;2.30;;
59972;SDS011;55298;-36.624;-64.282;2023-11-19T04:32:44;3.72;;;2.58;;
59972;SDS011;55298;-36.624;-64.282;2023-11-19T04:35:11;2.50;;;2.20;;
59972;SDS011;55298;-36.624;-64.282;2023-11-19T04:37:39;2.75;;;2.30;;
59972;SDS011;55298;-36.624;-64.282;2023-11-19T04:40:08;2.40;;;2.30;;
59972;SDS011;55298;-36.624;-64.282;2023-11-19T04:42:37;3.60;;;2.75;;
59972;SDS011;55298;-36.624;-64.282;2023-11-19T04:45:06;3.60;;;2.30;;
59972;SDS011;55298;-36.624;-64.282;2023-11-19T04:47:37;2.78;;;2.60;;
59972;SDS011;55298;-36.624;-64.282;2023-11-19T04:50:04;4.20;;;3.05;;
59972;SDS011;55298;-36.624;-64.282;2023-11-19T04:52:32;2.25;;;2.15;;
59972;SDS011;55298;-36.624;-64.282;2023-11-19T04:55:00;2.80;;;2.58;;
59972;SDS011;55298;-36.624;-64.282;2023-11-19T04:57:28;2.40;;;2.20;;
59972;SDS011;55298;-36.624;-64.282;2023-11-19T04:59:58;2.58;;;2.38;;
59972;SDS011;55298;-36.624;-64.282;2023-11-19T05:02:26;2.90;;;2.65;;
59972;SDS011;55298;-36.624;-64.282;2023-11-19T05:04:54;3.47;;;2.55;;
59972;SDS011;55298;-36.624;-64.282;2023-11-19T05:07:22;2.00;;;1.90;;
59972;SDS011;55298;-36.624;-64.282;2023-11-19T05:09:50;2.53;;;2.30;;
59972;SDS011;55298;-36.624;-64.282;2023-11-19T05:12:17;2.55;;;2.17;;
59972;SDS011;55298;-36.624;-64.282;2023-11-19T05:14:45;3.05;;;2.45;;
59972;SDS011;55298;-36.624;-64.282;2023-11-19T05:17:17;3.25;;;2.30;;
59972;SDS011;55298;-36.624;-64.282;2023-11-19T05:19:45;2.47;;;2.30;;
59972;SDS011;55298;-36.624;-64.282;2023-11-19T05:22:13;2.30;;;2.20;;
59972;SDS011;55298;-36.624;-64.282;2023-11-19T05:24:41;3.40;;;2.78;;
59972;SDS011;55298;-36.624;-64.282;2023-11-19T05:27:09;2.85;;;2.65;;
59972;SDS011;55298;-36.624;-64.282;2023-11-19T05:29:38;2.70;;;2.47;;
59972;SDS011;55298;-36.624;-64.282;2023-11-19T05:32:07;3.60;;;2.72;;
59972;SDS011;55298;-36.624;-64.282;2023-11-19T05:34:35;3.63;;;2.47;;
59972;SDS011;55298;-36.624;-64.282;2023-11-19T05:37:02;2.47;;;2.38;;
59972;SDS011;55298;-36.624;-64.282;2023-11-19T05:39:31;4.85;;;2.50;;
59972;SDS011;55298;-36.624;-64.282;2023-11-19T05:41:59;2.47;;;2.38;;
59972;SDS011;55298;-36.624;-64.282;2023-11-19T05:44:26;2.83;;;2.58;;
59972;SDS011;55298;-36.624;-64.282;2023-11-19T05:46:54;4.45;;;2.35;;
59972;SDS011;55298;-36.624;-64.282;2023-11-19T05:49:23;2.70;;;2.50;;
59972;SDS011;55298;-36.624;-64.282;2023-11-19T05:51:51;2.55;;;2.45;;
59972;SDS011;55298;-36.624;-64.282;2023-11-19T05:54:21;4.30;;;2.17;;
59972;SDS011;55298;-36.624;-64.282;2023-11-19T05:56:49;2.53;;;2.38;;
59972;SDS011;55298;-36.624;-64.282;2023-11-19T05:59:19;2.45;;;2.25;;
59972;SDS011;55298;-36.624;-64.282;2023-11-19T06:01:48;2.53;;;2.33;;
59972;SDS011;55298;-36.624;-64.282;2023-11-19T06:04:16;3.95;;;2.38;;
59972;SDS011;55298;-36.624;-64.282;2023-11-19T06:06:43;2.28;;;2.08;;
59972;SDS011;55298;-36.624;-64.282;2023-11-19T06:09:11;2.80;;;2.60;;
59972;SDS011;55298;-36.624;-64.282;2023-11-19T06:11:39;2.65;;;2.45;;
59972;SDS011;55298;-36.624;-64.282;2023-11-19T06:14:07;2.70;;;2.50;;
59972;SDS011;55298;-36.624;-64.282;2023-11-19T06:16:34;2.60;;;2.50;;
59972;SDS011;55298;-36.624;-64.282;2023-11-19T06:19:02;3.22;;;2.33;;
59972;SDS011;55298;-36.624;-64.282;2023-11-19T06:21:30;2.72;;;2.20;;
59972;SDS011;55298;-36.624;-64.282;2023-11-19T06:23:58;2.40;;;2.17;;
59972;SDS011;55298;-36.624;-64.282;2023-11-19T06:26:25;5.28;;;3.20;;
59972;SDS011;55298;-36.624;-64.282;2023-11-19T06:28:56;2.50;;;2.25;;
59972;SDS011;55298;-36.624;-64.282;2023-11-19T06:31:24;2.65;;;2.45;;
59972;SDS011;55298;-36.624;-64.282;2023-11-19T06:33:51;4.47;;;2.25;;
59972;SDS011;55298;-36.624;-64.282;2023-11-19T06:36:19;4.57;;;2.25;;
59972;SDS011;55298;-36.624;-64.282;2023-11-19T06:38:47;4.80;;;2.28;;
59972;SDS011;55298;-36.624;-64.282;2023-11-19T06:41:15;2.38;;;2.17;;
59972;SDS011;55298;-36.624;-64.282;2023-11-19T06:43:42;2.38;;;2.28;;
59972;SDS011;55298;-36.624;-64.282;2023-11-19T06:46:17;2.58;;;2.35;;
59972;SDS011;55298;-36.624;-64.282;2023-11-19T06:48:45;2.50;;;2.30;;
59972;SDS011;55298;-36.624;-64.282;2023-11-19T06:51:13;3.45;;;3.17;;
59972;SDS011;55298;-36.624;-64.282;2023-11-19T06:53:42;3.67;;;2.50;;
59972;SDS011;55298;-36.624;-64.282;2023-11-19T06:58:48;3.08;;;2.88;;
59972;SDS011;55298;-36.624;-64.282;2023-11-19T07:01:16;2.90;;;2.70;;
59972;SDS011;55298;-36.624;-64.282;2023-11-19T07:03:45;4.32;;;2.40;;
59972;SDS011;55298;-36.624;-64.282;2023-11-19T07:06:14;3.63;;;2.42;;
59972;SDS011;55298;-36.624;-64.282;2023-11-19T07:08:41;3.65;;;2.58;;
59972;SDS011;55298;-36.624;-64.282;2023-11-19T07:11:10;2.75;;;2.33;;
59972;SDS011;55298;-36.624;-64.282;2023-11-19T07:13:40;3.20;;;2.40;;
59972;SDS011;55298;-36.624;-64.282;2023-11-19T07:16:08;3.38;;;2.50;;
59972;SDS011;55298;-36.624;-64.282;2023-11-19T07:18:36;2.90;;;2.60;;
59972;SDS011;55298;-36.624;-64.282;2023-11-19T07:21:04;2.85;;;2.45;;
59972;SDS011;55298;-36.624;-64.282;2023-11-19T07:23:33;2.67;;;2.47;;
59972;SDS011;55298;-36.624;-64.282;2023-11-19T07:26:00;2.50;;;2.30;;
59972;SDS011;55298;-36.624;-64.282;2023-11-19T07:28:31;3.75;;;2.38;;
59972;SDS011;55298;-36.624;-64.282;2023-11-19T07:30:58;2.55;;;2.30;;
59972;SDS011;55298;-36.624;-64.282;2023-11-19T07:33:26;2.42;;;2.25;;
59972;SDS011;55298;-36.624;-64.282;2023-11-19T07:35:55;3.80;;;2.40;;
59972;SDS011;55298;-36.624;-64.282;2023-11-19T07:38:22;2.83;;;2.10;;
59972;SDS011;55298;-36.624;-64.282;2023-11-19T07:40:50;2.85;;;2.45;;
59972;SDS011;55298;-36.624;-64.282;2023-11-19T07:43:18;4.55;;;2.78;;
59972;SDS011;55298;-36.624;-64.282;2023-11-19T07:45:45;4.22;;;2.20;;
59972;SDS011;55298;-36.624;-64.282;2023-11-19T07:48:13;5.20;;;2.45;;
59972;SDS011;55298;-36.624;-64.282;2023-11-19T07:50:41;3.15;;;2.55;;
59972;SDS011;55298;-36.624;-64.282;2023-11-19T07:53:08;4.97;;;2.58;;
59972;SDS011;55298;-36.624;-64.282;2023-11-19T07:55:38;2.70;;;2.45;;
59972;SDS011;55298;-36.624;-64.282;2023-11-19T07:58:06;3.05;;;2.80;;
59972;SDS011;55298;-36.624;-64.282;2023-11-19T08:00:34;2.13;;;2.03;;
59972;SDS011;55298;-36.624;-64.282;2023-11-19T08:03:03;4.72;;;2.42;;
59972;SDS011;55298;-36.624;-64.282;2023-11-19T08:05:31;2.70;;;2.05;;
59972;SDS011;55298;-36.624;-64.282;2023-11-19T08:07:58;2.35;;;2.15;;
59972;SDS011;55298;-36.624;-64.282;2023-11-19T08:10:26;2.50;;;2.30;;
59972;SDS011;55298;-36.624;-64.282;2023-11-19T08:12:54;2.80;;;2.60;;
59972;SDS011;55298;-36.624;-64.282;2023-11-19T08:15:22;3.97;;;2.30;;
59972;SDS011;55298;-36.624;-64.282;2023-11-19T08:17:49;2.50;;;2.40;;
59972;SDS011;55298;-36.624;-64.282;2023-11-19T08:20:17;2.30;;;2.20;;
59972;SDS011;55298;-36.624;-64.282;2023-11-19T08:22:45;3.08;;;2.10;;
59972;SDS011;55298;-36.624;-64.282;2023-11-19T08:25:13;3.38;;;2.33;;
59972;SDS011;55298;-36.624;-64.282;2023-11-19T08:27:40;5.65;;;2.20;;
59972;SDS011;55298;-36.624;-64.282;2023-11-19T08:30:08;2.47;;;2.28;;
59972;SDS011;55298;-36.624;-64.282;2023-11-19T08:32:36;2.25;;;2.10;;
59972;SDS011;55298;-36.624;-64.282;2023-11-19T08:35:04;3.10;;;2.88;;
59972;SDS011;55298;-36.624;-64.282;2023-11-19T08:37:32;2.75;;;2.40;;
59972;SDS011;55298;-36.624;-64.282;2023-11-19T08:40:02;2.50;;;2.28;;
59972;SDS011;55298;-36.624;-64.282;2023-11-19T08:42:30;3.00;;;2.60;;
59972;SDS011;55298;-36.624;-64.282;2023-11-19T08:44:59;2.60;;;2.08;;
59972;SDS011;55298;-36.624;-64.282;2023-11-19T08:47:26;5.05;;;2.58;;
59972;SDS011;55298;-36.624;-64.282;2023-11-19T08:49:54;3.28;;;2.95;;
59972;SDS011;55298;-36.624;-64.282;2023-11-19T08:52:22;3.00;;;2.40;;
59972;SDS011;55298;-36.624;-64.282;2023-11-19T08:54:49;2.47;;;2.30;;
59972;SDS011;55298;-36.624;-64.282;2023-11-19T08:57:17;2.42;;;2.30;;
59972;SDS011;55298;-36.624;-64.282;2023-11-19T08:59:46;2.47;;;2.33;;
59972;SDS011;55298;-36.624;-64.282;2023-11-19T09:02:13;2.55;;;2.35;;
59972;SDS011;55298;-36.624;-64.282;2023-11-19T09:04:42;2.60;;;2.50;;
59972;SDS011;55298;-36.624;-64.282;2023-11-19T09:07:09;2.58;;;2.38;;
59972;SDS011;55298;-36.624;-64.282;2023-11-19T09:09:38;3.25;;;2.20;;
59972;SDS011;55298;-36.624;-64.282;2023-11-19T09:12:06;2.60;;;2.28;;
59972;SDS011;55298;-36.624;-64.282;2023-11-19T09:14:33;2.90;;;2.05;;
59972;SDS011;55298;-36.624;-64.282;2023-11-19T09:17:01;2.78;;;2.28;;
59972;SDS011;55298;-36.624;-64.282;2023-11-19T09:19:29;2.70;;;2.47;;
59972;SDS011;55298;-36.624;-64.282;2023-11-19T09:22:01;2.83;;;2.50;;
59972;SDS011;55298;-36.624;-64.282;2023-11-19T09:24:29;2.85;;;2.42;;
59972;SDS011;55298;-36.624;-64.282;2023-11-19T09:26:57;2.55;;;2.35;;
59972;SDS011;55298;-36.624;-64.282;2023-11-19T09:29:25;2.30;;;2.03;;
59972;SDS011;55298;-36.624;-64.282;2023-11-19T09:31:53;2.55;;;2.45;;
59972;SDS011;55298;-36.624;-64.282;2023-11-19T09:34:21;2.72;;;2.53;;
59972;SDS011;55298;-36.624;-64.282;2023-11-19T09:36:48;3.03;;;2.53;;
59972;SDS011;55298;-36.624;-64.282;2023-11-19T09:39:16;2.55;;;2.35;;
59972;SDS011;55298;-36.624;-64.282;2023-11-19T09:41:44;3.33;;;3.08;;
59972;SDS011;55298;-36.624;-64.282;2023-11-19T09:44:12;2.83;;;2.60;;
59972;SDS011;55298;-36.624;-64.282;2023-11-19T09:46:43;2.45;;;2.25;;
59972;SDS011;55298;-36.624;-64.282;2023-11-19T09:49:12;3.47;;;2.53;;
59972;SDS011;55298;-36.624;-64.282;2023-11-19T09:51:40;4.13;;;2.90;;
59972;SDS011;55298;-36.624;-64.282;2023-11-19T09:54:08;5.15;;;2.20;;
59972;SDS011;55298;-36.624;-64.282;2023-11-19T09:56:38;4.93;;;2.60;;
59972;SDS011;55298;-36.624;-64.282;2023-11-19T09:59:07;2.70;;;2.50;;
59972;SDS011;55298;-36.624;-64.282;2023-11-19T10:01:37;2.90;;;2.55;;
59972;SDS011;55298;-36.624;-64.282;2023-11-19T10:04:05;2.35;;;2.13;;
59972;SDS011;55298;-36.624;-64.282;2023-11-19T10:06:34;4.38;;;2.10;;
59972;SDS011;55298;-36.624;-64.282;2023-11-19T10:09:02;2.63;;;2.38;;
59972;SDS011;55298;-36.624;-64.282;2023-11-19T10:11:30;2.60;;;2.40;;
59972;SDS011;55298;-36.624;-64.282;2023-11-19T10:13:59;2.85;;;2.47;;
59972;SDS011;55298;-36.624;-64.282;2023-11-19T10:16:28;2.33;;;2.20;;
59972;SDS011;55298;-36.624;-64.282;2023-11-19T10:18:57;3.28;;;2.28;;
59972;SDS011;55298;-36.624;-64.282;2023-11-19T10:21:24;2.30;;;2.10;;
59972;SDS011;55298;-36.624;-64.282;2023-11-19T10:23:54;2.70;;;2.47;;
59972;SDS011;55298;-36.624;-64.282;2023-11-19T10:26:25;2.95;;;2.38;;
59972;SDS011;55298;-36.624;-64.282;2023-11-19T10:28:55;4.00;;;2.38;;
59972;SDS011;55298;-36.624;-64.282;2023-11-19T10:31:23;2.45;;;2.25;;
59972;SDS011;55298;-36.624;-64.282;2023-11-19T10:33:51;2.58;;;2.38;;
59972;SDS011;55298;-36.624;-64.282;2023-11-19T10:36:20;4.38;;;2.20;;
59972;SDS011;55298;-36.624;-64.282;2023-11-19T10:38:53;3.20;;;2.30;;
59972;SDS011;55298;-36.624;-64.282;2023-11-19T10:43:59;3.40;;;2.00;;
59972;SDS011;55298;-36.624;-64.282;2023-11-19T10:49:06;2.35;;;2.15;;
59972;SDS011;55298;-36.624;-64.282;2023-11-19T10:51:34;2.25;;;2.03;;
59972;SDS011;55298;-36.624;-64.282;2023-11-19T10:54:04;7.30;;;1.90;;
59972;SDS011;55298;-36.624;-64.282;2023-11-19T10:56:33;1.90;;;1.42;;
59972;SDS011;55298;-36.624;-64.282;2023-11-19T10:59:01;4.28;;;1.52;;
59972;SDS011;55298;-36.624;-64.282;2023-11-19T11:01:34;2.17;;;1.83;;
59972;SDS011;55298;-36.624;-64.282;2023-11-19T11:04:13;2.15;;;1.60;;
59972;SDS011;55298;-36.624;-64.282;2023-11-19T11:06:42;2.13;;;1.20;;
59972;SDS011;55298;-36.624;-64.282;2023-11-19T11:09:10;5.95;;;1.90;;
59972;SDS011;55298;-36.624;-64.282;2023-11-19T11:11:41;1.60;;;1.20;;
59972;SDS011;55298;-36.624;-64.282;2023-11-19T11:14:13;2.72;;;1.33;;
59972;SDS011;55298;-36.624;-64.282;2023-11-19T11:16:42;2.38;;;1.10;;
59972;SDS011;55298;-36.624;-64.282;2023-11-19T11:19:12;5.32;;;1.35;;
59972;SDS011;55298;-36.624;-64.282;2023-11-19T11:21:44;1.75;;;0.93;;
59972;SDS011;55298;-36.624;-64.282;2023-11-19T11:32:54;2.45;;;1.50;;
59972;SDS011;55298;-36.624;-64.282;2023-11-19T11:35:49;3.13;;;1.60;;
59972;SDS011;55298;-36.624;-64.282;2023-11-19T11:38:36;1.60;;;1.35;;
59972;SDS011;55298;-36.624;-64.282;2023-11-19T11:43:50;3.75;;;1.65;;
59972;SDS011;55298;-36.624;-64.282;2023-11-19T11:49:18;2.78;;;1.42;;
59972;SDS011;55298;-36.624;-64.282;2023-11-19T11:51:59;2.65;;;1.60;;
59972;SDS011;55298;-36.624;-64.282;2023-11-19T11:54:28;11.70;;;2.67;;
59972;SDS011;55298;-36.624;-64.282;2023-11-19T11:57:03;5.60;;;1.77;;
59972;SDS011;55298;-36.624;-64.282;2023-11-19T11:59:45;3.47;;;1.55;;
59972;SDS011;55298;-36.624;-64.282;2023-11-19T12:02:15;3.83;;;1.80;;
59972;SDS011;55298;-36.624;-64.282;2023-11-19T12:04:48;5.50;;;1.77;;
59972;SDS011;55298;-36.624;-64.282;2023-11-19T12:07:19;5.80;;;1.65;;
59972;SDS011;55298;-36.624;-64.282;2023-11-19T12:09:51;3.50;;;1.10;;
59972;SDS011;55298;-36.624;-64.282;2023-11-19T12:12:29;3.95;;;1.60;;
59972;SDS011;55298;-36.624;-64.282;2023-11-19T12:15:02;3.10;;;1.10;;
59972;SDS011;55298;-36.624;-64.282;2023-11-19T12:17:36;5.53;;;1.30;;
59972;SDS011;55298;-36.624;-64.282;2023-11-19T12:20:10;2.22;;;1.10;;
59972;SDS011;55298;-36.624;-64.282;2023-11-19T12:22:38;3.05;;;1.20;;
59972;SDS011;55298;-36.624;-64.282;2023-11-19T12:25:11;2.25;;;0.82;;
59972;SDS011;55298;-36.624;-64.282;2023-11-19T12:27:40;1.35;;;0.90;;
59972;SDS011;55298;-36.624;-64.282;2023-11-19T12:30:10;1.10;;;1.00;;
59972;SDS011;55298;-36.624;-64.282;2023-11-19T12:32:39;1.88;;;0.98;;
59972;SDS011;55298;-36.624;-64.282;2023-11-19T12:35:17;2.00;;;1.20;;
59972;SDS011;55298;-36.624;-64.282;2023-11-19T12:37:45;2.00;;;1.00;;
59972;SDS011;55298;-36.624;-64.282;2023-11-19T12:40:17;3.13;;;1.13;;
59972;SDS011;55298;-36.624;-64.282;2023-11-19T12:42:48;2.15;;;1.05;;
59972;SDS011;55298;-36.624;-64.282;2023-11-19T12:45:17;2.05;;;0.95;;
59972;SDS011;55298;-36.624;-64.282;2023-11-19T12:47:46;2.00;;;1.00;;
59972;SDS011;55298;-36.624;-64.282;2023-11-19T12:50:15;1.30;;;1.20;;
59972;SDS011;55298;-36.624;-64.282;2023-11-19T12:52:56;1.30;;;1.02;;
59972;SDS011;55298;-36.624;-64.282;2023-11-19T12:55:27;2.13;;;1.13;;
59972;SDS011;55298;-36.624;-64.282;2023-11-19T12:57:58;1.70;;;0.85;;
59972;SDS011;55298;-36.624;-64.282;2023-11-19T13:00:26;1.50;;;0.90;;
59972;SDS011;55298;-36.624;-64.282;2023-11-19T13:02:56;1.75;;;1.00;;
59972;SDS011;55298;-36.624;-64.282;2023-11-19T13:05:26;4.05;;;0.93;;
59972;SDS011;55298;-36.624;-64.282;2023-11-19T13:08:00;2.97;;;0.88;;
59972;SDS011;55298;-36.624;-64.282;2023-11-19T13:10:32;2.20;;;1.20;;
59972;SDS011;55298;-36.624;-64.282;2023-11-19T13:13:16;2.55;;;0.93;;
59972;SDS011;55298;-36.624;-64.282;2023-11-19T13:15:44;1.13;;;0.80;;
59972;SDS011;55298;-36.624;-64.282;2023-11-19T13:18:12;1.65;;;1.38;;
59972;SDS011;55298;-36.624;-64.282;2023-11-19T13:20:43;3.65;;;1.10;;
59972;SDS011;55298;-36.624;-64.282;2023-11-19T13:23:10;4.18;;;1.13;;
59972;SDS011;55298;-36.624;-64.282;2023-11-19T13:25:40;3.90;;;1.00;;
59972;SDS011;55298;-36.624;-64.282;2023-11-19T13:28:09;2.75;;;0.80;;
59972;SDS011;55298;-36.624;-64.282;2023-11-19T13:30:36;2.70;;;0.80;;
59972;SDS011;55298;-36.624;-64.282;2023-11-19T13:33:04;1.42;;;1.00;;
59972;SDS011;55298;-36.624;-64.282;2023-11-19T13:35:32;5.20;;;1.30;;
59972;SDS011;55298;-36.624;-64.282;2023-11-19T13:38:00;2.10;;;0.80;;
59972;SDS011;55298;-36.624;-64.282;2023-11-19T13:40:29;1.60;;;1.10;;
59972;SDS011;55298;-36.624;-64.282;2023-11-19T13:42:58;3.17;;;1.00;;
59972;SDS011;55298;-36.624;-64.282;2023-11-19T13:45:26;1.20;;;0.90;;
59972;SDS011;55298;-36.624;-64.282;2023-11-19T13:47:53;2.40;;;0.90;;
59972;SDS011;55298;-36.624;-64.282;2023-11-19T13:50:21;1.50;;;0.82;;
59972;SDS011;55298;-36.624;-64.282;2023-11-19T13:52:49;0.85;;;0.80;;
59972;SDS011;55298;-36.624;-64.282;2023-11-19T13:55:16;2.35;;;1.08;;
59972;SDS011;55298;-36.624;-64.282;2023-11-19T13:57:44;1.15;;;0.90;;
59972;SDS011;55298;-36.624;-64.282;2023-11-19T14:00:14;1.73;;;1.00;;
59972;SDS011;55298;-36.624;-64.282;2023-11-19T14:02:46;0.88;;;0.80;;
59972;SDS011;55298;-36.624;-64.282;2023-11-19T14:05:14;1.40;;;1.10;;
59972;SDS011;55298;-36.624;-64.282;2023-11-19T14:07:43;0.70;;;0.68;;
59972;SDS011;55298;-36.624;-64.282;2023-11-19T14:10:14;3.25;;;2.85;;
59972;SDS011;55298;-36.624;-64.282;2023-11-19T14:12:42;3.30;;;1.20;;
59972;SDS011;55298;-36.624;-64.282;2023-11-19T14:15:11;4.07;;;1.00;;
59972;SDS011;55298;-36.624;-64.282;2023-11-19T14:17:39;2.50;;;1.30;;
59972;SDS011;55298;-36.624;-64.282;2023-11-19T14:20:07;4.70;;;1.30;;
59972;SDS011;55298;-36.624;-64.282;2023-11-19T14:22:43;7.65;;;6.93;;
59972;SDS011;55298;-36.624;-64.282;2023-11-19T14:25:14;2.42;;;1.30;;
59972;SDS011;55298;-36.624;-64.282;2023-11-19T14:27:43;1.20;;;1.10;;
59972;SDS011;55298;-36.624;-64.282;2023-11-19T14:30:12;1.95;;;1.85;;
59972;SDS011;55298;-36.624;-64.282;2023-11-19T14:32:41;1.50;;;1.40;;
59972;SDS011;55298;-36.624;-64.282;2023-11-19T14:35:11;2.20;;;1.20;;
59972;SDS011;55298;-36.624;-64.282;2023-11-19T14:37:39;2.83;;;1.65;;
59972;SDS011;55298;-36.624;-64.282;2023-11-19T14:40:09;4.30;;;3.55;;